createdAt,value
2022-08-17T00:04:19.864Z,20.01
2022-08-17T00:09:22.767Z,20.00
2022-08-17T00:14:25.563Z,19.90
2022-08-17T00:19:28.674Z,19.86
2022-08-17T00:24:31.423Z,19.87
2022-08-17T00:29:34.254Z,19.87
2022-08-17T00:34:38.395Z,19.71
2022-08-17T00:39:42.092Z,19.61
2022-08-17T00:44:44.948Z,19.60
2022-08-17T00:49:48.523Z,19.69
2022-08-17T00:54:52.299Z,19.67
2022-08-17T01:00:02.742Z,19.69
2022-08-17T01:05:06.458Z,19.65
2022-08-17T01:10:58.522Z,19.58
2022-08-17T01:15:49.305Z,19.61
2022-08-17T01:21:12.048Z,19.49
2022-08-17T01:26:35.594Z,19.41
2022-08-17T01:31:54.813Z,19.46
2022-08-17T01:36:58.872Z,19.37
2022-08-17T01:42:20.300Z,19.35
2022-08-17T01:47:36.021Z,19.20
2022-08-17T01:52:39.978Z,19.31
2022-08-17T01:57:45.515Z,19.28
2022-08-17T02:02:49.265Z,19.19
2022-08-17T02:08:00.603Z,19.06
2022-08-17T02:13:03.673Z,18.84
2022-08-17T02:18:07.764Z,18.86
2022-08-17T02:23:10.667Z,18.92
2022-08-17T02:28:13.673Z,18.95
2022-08-17T02:33:16.941Z,18.86
2022-08-17T02:38:23.440Z,18.78
2022-08-17T02:43:27.487Z,18.81
2022-08-17T02:48:32.037Z,18.78
2022-08-17T02:53:35.739Z,18.78
2022-08-17T02:58:40.235Z,18.75
2022-08-17T03:03:43.828Z,18.81
2022-08-17T03:08:46.983Z,18.56
2022-08-17T03:13:50.981Z,18.51
2022-08-17T03:18:55.569Z,18.47
2022-08-17T03:23:58.737Z,18.53
2022-08-17T03:29:02.048Z,18.54
2022-08-17T03:34:04.849Z,18.50
2022-08-17T03:39:08.026Z,18.39
2022-08-17T03:44:11.747Z,18.59
2022-08-17T03:49:33.143Z,18.40
2022-08-17T03:54:54.710Z,18.42
2022-08-17T03:59:58.195Z,18.45
2022-08-17T04:05:01.327Z,18.34
2022-08-17T04:10:04.925Z,18.49
2022-08-17T04:15:09.026Z,18.52
2022-08-17T04:20:12.734Z,18.53
2022-08-17T04:25:15.565Z,18.50
2022-08-17T04:30:19.152Z,18.70
2022-08-17T04:35:22.377Z,18.94
2022-08-17T04:40:42.926Z,19.06
2022-08-17T04:45:55.632Z,19.27
2022-08-17T04:51:00.089Z,19.40
2022-08-17T04:56:02.900Z,19.58
2022-08-17T05:01:07.465Z,19.68
2022-08-17T05:06:10.344Z,19.81
2022-08-17T05:11:13.260Z,19.98
2022-08-17T05:16:16.540Z,20.31
2022-08-17T05:21:20.153Z,20.89
2022-08-17T05:26:26.902Z,21.25
2022-08-17T05:31:31.502Z,21.35
2022-08-17T05:36:38.025Z,21.37
2022-08-17T05:41:47.554Z,21.77
2022-08-17T05:46:50.699Z,21.80
2022-08-17T05:51:54.052Z,22.25
2022-08-17T05:56:56.824Z,22.48
2022-08-17T06:01:59.870Z,22.77
2022-08-17T06:07:02.629Z,23.07
2022-08-17T06:12:06.580Z,22.92
2022-08-17T06:17:17.038Z,22.86
2022-08-17T06:22:20.458Z,23.27
2022-08-17T06:27:23.714Z,23.66
2022-08-17T06:32:26.508Z,23.30
2022-08-17T06:37:29.328Z,23.50
2022-08-17T06:42:59.871Z,22.66
2022-08-17T06:47:56.228Z,23.35
2022-08-17T06:52:59.686Z,22.80
2022-08-17T06:58:05.747Z,22.94
2022-08-17T07:03:21.209Z,23.85
2022-08-17T07:08:29.141Z,23.65
2022-08-17T07:13:33.135Z,24.13
2022-08-17T07:18:36.956Z,24.35
2022-08-17T07:23:41.003Z,25.25
2022-08-17T07:28:45.249Z,25.51
2022-08-17T07:33:48.002Z,25.74
2022-08-17T07:38:51.256Z,25.70
2022-08-17T07:43:54.602Z,26.02
2022-08-17T07:48:57.815Z,26.18
2022-08-17T07:54:13.583Z,26.56
2022-08-17T07:59:17.072Z,26.12
2022-08-17T08:04:25.836Z,26.11
2022-08-17T08:09:42.922Z,26.03
2022-08-17T08:14:45.710Z,26.50
2022-08-17T08:19:48.449Z,26.85
2022-08-17T08:24:51.445Z,27.11
2022-08-17T08:29:55.401Z,26.87
2022-08-17T08:35:02.826Z,26.62
2022-08-17T08:40:08.331Z,26.86
2022-08-17T08:45:11.183Z,27.58
2022-08-17T08:50:37.620Z,27.58
2022-08-17T08:55:37.266Z,27.25
2022-08-17T09:00:40.941Z,27.32
2022-08-17T09:05:43.733Z,27.81
2022-08-17T09:10:46.960Z,27.95
2022-08-17T09:15:49.712Z,27.57
2022-08-17T09:20:52.499Z,27.87
2022-08-17T09:25:56.296Z,27.88
2022-08-17T09:31:03.050Z,28.07
2022-08-17T09:36:06.357Z,28.48
2022-08-17T09:41:09.534Z,28.66
2022-08-17T09:46:12.327Z,28.76
2022-08-17T09:51:15.638Z,28.51
2022-08-17T09:56:18.381Z,28.85
2022-08-17T10:01:21.378Z,28.69
2022-08-17T10:06:26.145Z,28.91
2022-08-17T10:11:50.763Z,29.22
2022-08-17T10:16:55.904Z,29.31
2022-08-17T10:22:35.175Z,28.97
2022-08-17T10:27:39.430Z,28.95
2022-08-17T10:32:43.135Z,29.63
2022-08-17T10:37:46.588Z,29.32
2022-08-17T10:42:50.195Z,29.44
2022-08-17T10:47:56.122Z,29.72
2022-08-17T10:53:00.501Z,29.79
2022-08-17T10:58:03.848Z,30.13
2022-08-17T11:03:07.418Z,30.73
2022-08-17T11:08:12.236Z,31.04
2022-08-17T11:13:15.867Z,31.18
2022-08-17T11:18:20.419Z,31.06
2022-08-17T11:23:23.949Z,31.50
2022-08-17T11:28:28.426Z,30.42
2022-08-17T11:33:31.795Z,30.23
2022-08-17T11:38:35.096Z,30.83
2022-08-17T11:43:45.646Z,30.73
2022-08-17T11:49:07.044Z,31.04
2022-08-17T11:59:34.601Z,30.67
2022-08-17T12:04:38.769Z,30.88
2022-08-17T12:09:42.056Z,30.82
2022-08-17T12:15:08.967Z,30.76
2022-08-17T12:20:08.114Z,31.24
2022-08-17T12:25:11.130Z,31.13
2022-08-17T12:30:13.971Z,30.51
2022-08-17T12:35:17.495Z,30.87
2022-08-17T12:40:22.537Z,31.18
2022-08-17T12:45:25.307Z,30.93
2022-08-17T12:50:30.250Z,31.01
2022-08-17T12:55:34.058Z,30.95
2022-08-17T13:00:38.024Z,31.55
2022-08-17T13:05:40.878Z,31.55
2022-08-17T13:10:43.912Z,31.73
2022-08-17T13:15:47.151Z,31.72
2022-08-17T13:20:51.740Z,31.56
2022-08-17T13:25:54.516Z,31.83
2022-08-17T13:30:57.442Z,31.90
2022-08-17T13:36:00.188Z,32.02
2022-08-17T13:41:05.668Z,31.81
2022-08-17T13:46:08.426Z,31.84
2022-08-17T13:51:11.456Z,32.42
2022-08-17T13:56:38.007Z,32.35
2022-08-17T14:01:37.256Z,32.70
2022-08-17T14:06:52.275Z,33.06
2022-08-17T14:11:56.994Z,33.43
2022-08-17T14:17:01.030Z,33.19
2022-08-17T14:22:05.001Z,33.32
2022-08-17T14:27:09.109Z,33.17
2022-08-17T14:32:12.430Z,32.84
2022-08-17T14:37:15.834Z,33.08
2022-08-17T14:42:20.905Z,32.81
2022-08-17T14:47:24.859Z,32.60
2022-08-17T14:52:29.019Z,32.42
2022-08-17T14:57:34.283Z,32.38
2022-08-17T15:02:37.516Z,32.16
2022-08-17T15:07:40.482Z,32.08
2022-08-17T15:12:43.263Z,31.80
2022-08-17T15:17:47.707Z,32.21
2022-08-17T15:22:50.689Z,31.54
2022-08-17T15:27:54.475Z,31.53
2022-08-17T15:32:57.241Z,31.52
2022-08-17T15:38:04.643Z,31.58
2022-08-17T15:43:11.648Z,32.20
2022-08-17T15:48:15.784Z,32.78
2022-08-17T15:53:18.886Z,32.50
2022-08-17T15:58:21.999Z,32.10
2022-08-17T16:04:01.878Z,31.68
2022-08-17T16:08:59.481Z,30.97
2022-08-17T16:14:02.384Z,30.61
2022-08-17T16:19:05.179Z,30.51
2022-08-17T16:24:13.151Z,30.24
2022-08-17T16:29:17.903Z,29.97
2022-08-17T16:34:21.218Z,30.25
2022-08-17T16:39:24.508Z,30.10
2022-08-17T16:44:29.103Z,30.25
2022-08-17T16:49:36.929Z,30.11
2022-08-17T16:54:43.826Z,29.93
2022-08-17T16:59:50.284Z,29.65
2022-08-17T17:04:53.082Z,29.43
2022-08-17T17:09:56.187Z,29.13
2022-08-17T17:15:01.417Z,28.96
2022-08-17T17:20:04.583Z,28.86
2022-08-17T17:43:40.892Z,28.41
2022-08-17T17:49:02.908Z,28.31
2022-08-17T17:54:12.778Z,28.14
2022-08-17T17:59:39.337Z,27.98
2022-08-17T18:05:05.033Z,27.52
2022-08-17T18:10:30.277Z,27.20
2022-08-17T18:15:54.685Z,27.18
2022-08-17T18:21:19.465Z,27.04
2022-08-17T18:26:44.801Z,26.82
2022-08-17T18:32:08.360Z,26.77
2022-08-17T18:37:32.955Z,26.71
2022-08-17T18:42:56.021Z,26.64
2022-08-17T18:48:19.125Z,26.34
2022-08-17T18:53:42.196Z,26.40
2022-08-17T18:59:05.404Z,26.20
2022-08-17T19:04:28.635Z,25.92
2022-08-17T19:10:03.071Z,25.97
2022-08-17T19:15:26.160Z,25.80
2022-08-17T19:20:49.229Z,25.61
2022-08-17T19:26:50.335Z,25.46
2022-08-17T19:31:56.231Z,25.26
2022-08-17T19:37:20.944Z,25.50
2022-08-17T19:42:47.503Z,25.36
2022-08-17T19:51:59.954Z,25.40
2022-08-17T19:57:02.893Z,25.47
2022-08-17T20:02:05.817Z,25.26
2022-08-17T20:07:08.710Z,25.21
2022-08-17T20:12:11.425Z,25.26
2022-08-17T20:17:14.245Z,25.17
2022-08-17T20:22:16.987Z,25.18
2022-08-17T20:27:21.940Z,25.09
2022-08-17T20:32:44.121Z,25.08
2022-08-17T20:37:46.898Z,25.06
2022-08-17T20:42:49.932Z,24.93
2022-08-17T20:48:30.491Z,24.91
2022-08-17T20:53:21.703Z,24.79
2022-08-17T20:58:24.403Z,24.76
2022-08-17T21:03:51.269Z,24.69
2022-08-17T21:08:54.457Z,24.62
2022-08-17T21:13:57.476Z,24.62
2022-08-17T21:19:00.166Z,24.51
2022-08-17T21:24:02.877Z,24.52
2022-08-17T21:29:29.847Z,24.56
2022-08-17T21:34:28.342Z,24.50
2022-08-17T21:39:33.206Z,24.48
2022-08-17T21:44:37.030Z,24.44
2022-08-17T21:49:39.782Z,24.39
2022-08-17T21:54:44.021Z,24.42
2022-08-17T21:59:46.745Z,24.50
2022-08-17T22:04:49.821Z,24.43
2022-08-17T22:09:52.517Z,24.36
2022-08-17T22:14:55.346Z,24.33
2022-08-17T22:19:58.167Z,23.85
2022-08-17T22:25:01.522Z,23.09
2022-08-17T22:30:05.171Z,21.63
2022-08-17T22:35:10.944Z,19.77
2022-08-17T22:40:13.670Z,19.64
2022-08-17T22:45:16.491Z,19.84
2022-08-17T22:50:19.180Z,19.81
2022-08-17T22:55:39.575Z,19.45
2022-08-17T23:00:42.255Z,19.36
2022-08-17T23:05:44.973Z,19.05
2022-08-17T23:10:47.842Z,18.44
2022-08-17T23:15:50.659Z,18.22
2022-08-17T23:20:53.395Z,18.06
2022-08-17T23:25:56.216Z,18.05
2022-08-17T23:30:58.922Z,18.18
2022-08-17T23:36:01.772Z,18.23
2022-08-17T23:41:04.930Z,18.31
2022-08-17T23:46:08.006Z,18.39
2022-08-17T23:51:10.846Z,18.47
2022-08-17T23:56:13.566Z,18.51
